This is the latest recevied weather packets stored in our database for station/object LRCL. If no packets are shown the sender has not sent any weather packets the latest 10 day(s).
| Time | Temp. | Humidity | Pressure | Rain* | Wind** | Luminosity | Snow |
|---|---|---|---|---|---|---|---|
| 1777555988 | 11.11° C | 35% | 1023 hPa | - | - | - | - |
| 1777555088 | 12.78° C | 33% | 1023 hPa | - | - | - | - |
| 1777554188 | 12.78° C | 33% | 1023 hPa | - | - | - | - |
| 1777553289 | 11.11° C | 38% | 1023 hPa | - | - | - | - |
| 1777552390 | 11.11° C | 38% | 1023 hPa | - | - | - | - |
| 1777551485 | 11.11° C | 38% | 1024 hPa | - | - | - | - |
| 1777550588 | 11.11° C | 38% | 1024 hPa | - | - | - | - |
| 1777549688 | 11.11° C | 38% | 1023 hPa | - | - | - | - |
| 1777548788 | 11.11° C | 38% | 1023 hPa | - | - | - | - |
| 1777547888 | 12.22° C | 38% | 1024 hPa | - | - | - | - |
| 1777546989 | 12.22° C | 38% | 1024 hPa | - | - | - | - |
| 1777546088 | 11.11° C | 41% | 1024 hPa | - | - | - | - |
| 1777545190 | 11.11° C | 41% | 1024 hPa | - | - | - | - |
| 1777544313 | 10° C | 40% | 1024 hPa | - | - | - | - |
| 1777543388 | 10° C | 40% | 1024 hPa | - | - | - | - |
| 1777542488 | 11.11° C | 38% | 1024 hPa | - | - | - | - |
| 1777541588 | 11.11° C | 38% | 1024 hPa | - | - | - | - |
| 1777540688 | 10° C | 40% | 1024 hPa | - | - | - | - |
| 1777539788 | 10° C | 40% | 1024 hPa | - | - | - | - |
| 1777538915 | 10° C | 40% | 1024 hPa | - | - | - | - |
| 1777537988 | 10° C | 40% | 1024 hPa | - | - | - | - |
| 1777537097 | 8.89° C | 43% | 1024 hPa | - | - | - | - |
| 1777536188 | 8.89° C | 43% | 1024 hPa | - | - | - | - |
| 1777535288 | 8.89° C | 46% | 1024 hPa | - | - | - | - |
| 1777534388 | 8.89° C | 46% | 1024 hPa | - | - | - | - |
* Rain since midnight (hover to see other rain measurements)
** Current wind speed in m/s (hover to see current wind gust speed)